createdAt,value
2022-10-17T00:01:16.156Z,10.50
2022-10-17T00:05:00.563Z,8.67
2022-10-17T00:08:43.795Z,10.87
2022-10-17T00:12:25.657Z,7.17
2022-10-17T00:16:07.838Z,10.90
2022-10-17T00:19:50.019Z,11.23
2022-10-17T00:23:33.182Z,10.20
2022-10-17T00:27:17.219Z,15.20
2022-10-17T00:31:00.689Z,9.73
2022-10-17T00:34:42.713Z,8.37
2022-10-17T00:38:24.498Z,12.47
2022-10-17T00:42:06.960Z,11.00
2022-10-17T00:45:48.783Z,14.87
2022-10-17T00:49:34.742Z,8.83
2022-10-17T00:53:17.436Z,11.53
2022-10-17T00:57:00.117Z,16.53
2022-10-17T01:00:43.636Z,9.40
2022-10-17T01:04:25.506Z,10.00
2022-10-17T01:08:08.169Z,6.03
2022-10-17T01:11:59.891Z,13.47
2022-10-17T01:15:47.779Z,14.23
2022-10-17T01:19:35.202Z,8.23
2022-10-17T01:27:37.496Z,11.57
2022-10-17T01:31:42.047Z,12.43
2022-10-17T01:35:26.679Z,10.00
2022-10-17T01:39:24.293Z,15.87
2022-10-17T01:43:26.088Z,10.67
2022-10-17T01:47:17.797Z,15.60
2022-10-17T01:51:06.446Z,11.07
2022-10-17T01:54:56.113Z,14.77
2022-10-17T01:58:49.486Z,15.77
2022-10-17T02:02:32.152Z,13.50
2022-10-17T02:06:14.055Z,12.27
2022-10-17T02:09:55.853Z,14.47
2022-10-17T02:13:52.403Z,18.40
2022-10-17T02:17:43.079Z,12.20
2022-10-17T02:25:41.644Z,14.83
2022-10-17T02:29:31.380Z,15.70
2022-10-17T02:33:20.749Z,15.47
2022-10-17T02:37:05.665Z,17.63
2022-10-17T02:40:50.223Z,13.33
2022-10-17T02:44:33.755Z,16.90
2022-10-17T02:48:44.206Z,15.23
2022-10-17T02:52:41.970Z,16.67
2022-10-17T02:56:26.295Z,19.07
2022-10-17T03:00:12.061Z,15.90
2022-10-17T03:04:05.872Z,11.40
2022-10-17T03:07:48.064Z,17.57
2022-10-17T03:11:29.931Z,17.47
2022-10-17T03:15:12.157Z,15.13
2022-10-17T03:18:59.971Z,13.07
2022-10-17T03:22:41.737Z,11.53
2022-10-17T03:26:23.519Z,13.67
2022-10-17T03:30:05.832Z,12.77
2022-10-17T03:33:47.654Z,12.17
2022-10-17T03:37:30.047Z,18.97
2022-10-17T03:41:12.025Z,15.30
2022-10-17T03:44:53.773Z,11.23
2022-10-17T03:48:35.654Z,11.33
2022-10-17T03:52:23.640Z,15.27
2022-10-17T03:56:24.538Z,14.97
2022-10-17T04:03:51.262Z,14.33
2022-10-17T04:07:33.092Z,13.27
2022-10-17T04:11:17.752Z,11.70
2022-10-17T04:14:59.540Z,15.07
2022-10-17T04:18:42.514Z,12.40
2022-10-17T04:22:24.279Z,19.33
2022-10-17T04:29:49.451Z,13.23
2022-10-17T04:33:32.470Z,20.10
2022-10-17T04:37:14.266Z,8.03
2022-10-17T04:41:03.193Z,15.13
2022-10-17T04:44:44.989Z,15.60
2022-10-17T04:48:27.676Z,13.40
2022-10-17T04:52:09.453Z,11.77
2022-10-17T04:55:51.708Z,14.03
2022-10-17T04:59:33.455Z,14.47
2022-10-17T05:03:15.625Z,11.77
2022-10-17T05:06:57.484Z,12.00
2022-10-17T05:10:46.224Z,13.30
2022-10-17T05:14:28.250Z,12.67
2022-10-17T05:18:10.053Z,14.93
2022-10-17T05:21:51.807Z,16.97
2022-10-17T05:25:33.558Z,10.63
2022-10-17T05:29:15.366Z,14.50
2022-10-17T05:32:57.303Z,17.93
2022-10-17T05:36:39.101Z,13.67
2022-10-17T05:40:20.965Z,16.77
2022-10-17T05:44:05.359Z,15.87
2022-10-17T05:47:47.543Z,11.37
2022-10-17T05:51:29.380Z,19.20
2022-10-17T05:55:11.212Z,15.80
2022-10-17T05:58:56.235Z,10.53
2022-10-17T06:02:40.551Z,18.20
2022-10-17T06:06:22.763Z,18.03
2022-10-17T06:10:04.844Z,15.63
2022-10-17T06:13:46.595Z,22.23
2022-10-17T06:17:29.211Z,17.53
2022-10-17T06:21:14.249Z,16.63
2022-10-17T06:24:56.017Z,15.70
2022-10-17T06:28:37.924Z,19.87
2022-10-17T06:32:19.712Z,19.77
2022-10-17T06:36:02.259Z,14.60
2022-10-17T06:39:44.154Z,17.73
2022-10-17T06:43:28.190Z,17.00
2022-10-17T06:47:10.269Z,13.47
2022-10-17T06:50:51.971Z,12.57
2022-10-17T06:54:33.780Z,16.80
2022-10-17T06:58:15.494Z,15.53
2022-10-17T07:01:57.283Z,15.90
2022-10-17T07:05:39.064Z,20.70
2022-10-17T07:09:21.106Z,15.43
2022-10-17T07:13:02.842Z,19.60
2022-10-17T07:16:45.449Z,17.13
2022-10-17T07:20:27.176Z,20.00
2022-10-17T07:24:08.977Z,11.27
2022-10-17T07:27:51.759Z,17.77
2022-10-17T07:31:34.070Z,12.50
2022-10-17T07:35:15.907Z,21.17
2022-10-17T07:38:57.605Z,17.60
2022-10-17T07:46:26.124Z,23.20
2022-10-17T07:50:08.668Z,15.93
2022-10-17T07:53:50.399Z,17.37
2022-10-17T07:57:32.151Z,15.03
2022-10-17T08:01:15.675Z,18.47
2022-10-17T08:04:58.113Z,18.53
2022-10-17T08:08:40.036Z,19.33
2022-10-17T08:12:22.278Z,13.97
2022-10-17T08:16:07.953Z,16.80
2022-10-17T08:19:49.662Z,17.90
2022-10-17T08:23:31.443Z,16.17
2022-10-17T08:27:13.770Z,16.77
2022-10-17T08:31:03.899Z,15.53
2022-10-17T08:34:45.691Z,15.48
2022-10-17T08:38:33.235Z,10.60
2022-10-17T08:42:59.616Z,13.40
2022-10-17T08:46:44.343Z,14.37
2022-10-17T08:50:35.742Z,13.87
2022-10-17T08:54:22.223Z,12.67
2022-10-17T08:58:17.069Z,14.83
2022-10-17T09:02:10.232Z,12.97
2022-10-17T09:06:05.883Z,12.40
2022-10-17T09:09:59.470Z,11.17
2022-10-17T09:13:53.247Z,10.87
2022-10-17T09:18:03.207Z,11.50
2022-10-17T09:22:02.450Z,10.18
2022-10-17T09:25:47.130Z,10.38
2022-10-17T09:29:39.014Z,8.87
2022-10-17T09:33:35.495Z,9.23
2022-10-17T09:37:32.862Z,8.30
2022-10-17T09:41:51.272Z,9.27
2022-10-17T09:45:38.749Z,13.23
2022-10-17T09:49:29.266Z,15.18
2022-10-17T09:53:20.723Z,9.30
2022-10-17T09:57:10.655Z,8.52
2022-10-17T10:00:52.517Z,7.85
2022-10-17T10:05:04.182Z,7.88
2022-10-17T10:08:53.171Z,9.02
2022-10-17T10:12:38.704Z,7.53
2022-10-17T10:16:22.646Z,7.57
2022-10-17T10:20:29.917Z,8.00
2022-10-17T10:24:14.749Z,9.82
2022-10-17T10:27:58.223Z,9.55
2022-10-17T10:31:42.401Z,4.55
2022-10-17T10:35:36.932Z,6.63
2022-10-17T10:39:28.710Z,7.20
2022-10-17T10:43:22.527Z,5.63
2022-10-17T10:47:28.915Z,8.45
2022-10-17T10:51:16.422Z,5.18
2022-10-17T10:55:22.587Z,7.15
2022-10-17T10:59:20.625Z,8.07
2022-10-17T11:03:12.988Z,5.03
2022-10-17T11:07:05.462Z,5.10
2022-10-17T11:11:13.689Z,6.60
2022-10-17T11:15:07.581Z,11.00
2022-10-17T11:19:04.670Z,6.68
2022-10-17T11:22:57.681Z,6.45
2022-10-17T11:26:46.301Z,7.63
2022-10-17T11:30:39.708Z,8.20
2022-10-17T11:34:26.427Z,8.30
2022-10-17T11:38:24.606Z,4.50
2022-10-17T11:42:12.495Z,6.32
2022-10-17T11:46:03.367Z,6.78
2022-10-17T11:49:54.045Z,6.88
2022-10-17T11:53:45.081Z,6.35
2022-10-17T11:57:39.467Z,5.93
2022-10-17T12:01:36.270Z,5.50
2022-10-17T12:05:38.323Z,4.70
2022-10-17T12:09:43.205Z,6.55
2022-10-17T12:13:28.060Z,9.85
2022-10-17T12:17:34.040Z,4.50
2022-10-17T12:21:16.034Z,6.32
2022-10-17T12:25:04.897Z,4.28
2022-10-17T12:28:49.719Z,5.53
2022-10-17T12:32:46.825Z,12.13
2022-10-17T12:36:34.068Z,5.65
2022-10-17T12:40:37.587Z,5.38
2022-10-17T12:44:22.004Z,5.38
2022-10-17T12:48:03.846Z,5.25
2022-10-17T12:52:16.475Z,6.47
2022-10-17T12:56:01.578Z,4.75
2022-10-17T12:59:45.276Z,6.93
2022-10-17T13:03:34.951Z,6.70
2022-10-17T13:07:22.122Z,3.95
2022-10-17T13:11:05.147Z,7.63
2022-10-17T13:14:47.944Z,2.85
2022-10-17T13:18:30.337Z,3.92
2022-10-17T13:22:15.873Z,2.83
2022-10-17T13:26:15.388Z,4.68
2022-10-17T13:29:59.176Z,4.22
2022-10-17T13:33:42.328Z,4.50
2022-10-17T13:37:24.500Z,5.40
2022-10-17T13:41:45.914Z,3.28
2022-10-17T13:45:32.960Z,4.68
2022-10-17T13:49:30.940Z,5.60
2022-10-17T13:53:24.391Z,6.10
2022-10-17T13:57:29.554Z,6.85
2022-10-17T14:01:12.856Z,5.40
2022-10-17T14:05:17.271Z,4.55
2022-10-17T14:09:06.650Z,5.22
2022-10-17T14:12:51.049Z,5.63
2022-10-17T14:16:42.562Z,5.70
2022-10-17T14:20:57.496Z,5.00
2022-10-17T14:24:31.417Z,7.63
2022-10-17T14:28:14.433Z,4.45
2022-10-17T14:32:10.507Z,6.20
2022-10-17T14:35:54.784Z,6.33
2022-10-17T14:39:36.657Z,5.17
2022-10-17T14:43:24.249Z,4.37
2022-10-17T14:47:38.026Z,4.33
2022-10-17T14:51:12.882Z,7.10
2022-10-17T14:54:55.396Z,6.00
2022-10-17T14:58:37.285Z,5.50
2022-10-17T15:02:19.810Z,4.80
2022-10-17T15:06:32.555Z,4.33
2022-10-17T15:10:35.758Z,5.50
2022-10-17T15:14:17.560Z,3.70
2022-10-17T15:17:59.688Z,6.57
2022-10-17T15:21:44.802Z,4.70
2022-10-17T15:25:31.263Z,4.97
2022-10-17T15:29:16.221Z,5.03
2022-10-17T15:32:59.013Z,7.20
2022-10-17T15:36:42.731Z,6.27
2022-10-17T15:40:29.719Z,6.37
2022-10-17T15:44:11.495Z,9.57
2022-10-17T15:47:56.776Z,6.83
2022-10-17T15:51:38.631Z,6.27
2022-10-17T15:55:20.664Z,7.00
2022-10-17T15:59:18.407Z,7.53
2022-10-17T16:03:00.522Z,5.20
2022-10-17T16:06:42.916Z,10.40
2022-10-17T16:10:25.987Z,6.70
2022-10-17T16:14:14.354Z,6.07
2022-10-17T16:17:57.879Z,8.77
2022-10-17T16:21:41.861Z,8.70
2022-10-17T16:25:26.307Z,8.90
2022-10-17T16:29:10.256Z,7.07
2022-10-17T16:32:53.056Z,11.03
2022-10-17T16:36:35.467Z,7.57
2022-10-17T16:40:17.821Z,7.27
2022-10-17T16:44:04.630Z,9.70
2022-10-17T16:47:46.852Z,7.53
2022-10-17T16:51:29.221Z,4.73
2022-10-17T16:55:11.005Z,7.73
2022-10-17T16:58:53.807Z,8.73
2022-10-17T17:02:35.579Z,11.60
2022-10-17T17:06:24.827Z,26.70
2022-10-17T17:14:12.790Z,10.07
2022-10-17T17:17:55.682Z,7.77
2022-10-17T17:21:38.767Z,9.73
2022-10-17T17:25:21.262Z,11.63
2022-10-17T17:29:03.393Z,8.10
2022-10-17T17:33:19.203Z,13.23
2022-10-17T17:37:00.913Z,12.30
2022-10-17T17:40:50.764Z,10.57
2022-10-17T17:44:33.120Z,11.95
2022-10-17T17:48:15.220Z,7.93
2022-10-17T17:51:57.055Z,14.80
2022-10-17T17:55:38.991Z,6.87
2022-10-17T17:59:20.745Z,8.90
2022-10-17T18:03:04.013Z,9.50
2022-10-17T18:06:47.086Z,8.67
2022-10-17T18:10:29.469Z,6.90
2022-10-17T18:14:13.603Z,6.77
2022-10-17T18:17:55.444Z,11.93
2022-10-17T18:21:37.919Z,17.30
2022-10-17T18:25:19.843Z,19.50
2022-10-17T18:29:04.761Z,12.70
2022-10-17T18:32:46.559Z,10.50
2022-10-17T18:36:30.075Z,11.27
2022-10-17T18:40:12.179Z,10.53
2022-10-17T18:43:55.639Z,8.23
2022-10-17T18:47:43.327Z,9.93
2022-10-17T18:51:26.466Z,10.93
2022-10-17T18:55:10.017Z,10.63
2022-10-17T18:58:52.165Z,10.97
2022-10-17T19:02:35.677Z,8.07
2022-10-17T19:06:23.328Z,10.77
2022-10-17T19:10:05.848Z,14.10
2022-10-17T19:13:50.202Z,17.07
2022-10-17T19:17:32.270Z,8.43
2022-10-17T19:21:18.029Z,15.97
2022-10-17T19:25:02.323Z,8.67
2022-10-17T19:28:44.386Z,12.90
2022-10-17T19:32:26.266Z,10.63
2022-10-17T19:36:10.859Z,10.77
2022-10-17T19:39:52.613Z,7.57
2022-10-17T19:43:37.074Z,8.37
2022-10-17T19:47:18.785Z,11.10
2022-10-17T19:51:00.896Z,9.20
2022-10-17T19:54:42.675Z,12.07
2022-10-17T19:58:27.933Z,11.73
2022-10-17T20:02:12.868Z,11.40
2022-10-17T20:05:55.031Z,13.13
2022-10-17T20:09:38.723Z,23.00
2022-10-17T20:13:20.540Z,9.10
2022-10-17T20:17:02.307Z,12.77
2022-10-17T20:20:44.101Z,12.60
2022-10-17T20:24:25.805Z,13.97
2022-10-17T20:28:07.872Z,13.70
2022-10-17T20:31:50.519Z,11.20
2022-10-17T20:35:34.773Z,11.53
2022-10-17T20:39:18.932Z,11.57
2022-10-17T20:43:05.401Z,8.27
2022-10-17T20:47:00.668Z,10.67
2022-10-17T20:50:43.861Z,10.40
2022-10-17T20:54:27.731Z,9.20
2022-10-17T20:58:13.623Z,15.37
2022-10-17T21:01:55.472Z,17.47
2022-10-17T21:05:40.748Z,10.73
2022-10-17T21:09:23.049Z,9.67
2022-10-17T21:13:04.784Z,7.90
2022-10-17T21:16:46.887Z,9.97
2022-10-17T21:20:28.626Z,10.73
2022-10-17T21:24:14.071Z,7.77
2022-10-17T21:27:55.903Z,7.13
2022-10-17T21:31:39.293Z,6.77
2022-10-17T21:35:21.020Z,7.90
2022-10-17T21:39:03.666Z,10.60
2022-10-17T21:42:45.459Z,7.07
2022-10-17T21:46:27.850Z,12.50
2022-10-17T21:50:09.897Z,10.83
2022-10-17T21:53:53.623Z,7.63
2022-10-17T21:57:36.432Z,12.93
2022-10-17T22:01:23.762Z,12.23
2022-10-17T22:05:05.851Z,7.73
2022-10-17T22:08:48.089Z,6.70
2022-10-17T22:12:30.137Z,6.83
2022-10-17T22:16:15.129Z,9.17
2022-10-17T22:19:56.846Z,6.93
2022-10-17T22:23:38.955Z,5.93
2022-10-17T22:27:21.002Z,5.87
2022-10-17T22:31:03.755Z,8.40
2022-10-17T22:38:25.951Z,10.10
2022-10-17T22:42:07.647Z,6.60
2022-10-17T22:45:57.637Z,9.50
2022-10-17T22:49:39.353Z,8.40
2022-10-17T22:53:26.802Z,9.83
2022-10-17T22:57:08.603Z,5.67
2022-10-17T23:00:51.698Z,8.80
2022-10-17T23:04:33.706Z,11.40
2022-10-17T23:08:18.014Z,8.77
2022-10-17T23:11:59.777Z,16.90
2022-10-17T23:15:42.395Z,11.83
2022-10-17T23:19:25.135Z,11.93
2022-10-17T23:23:06.983Z,14.57
2022-10-17T23:26:48.683Z,14.60
2022-10-17T23:30:32.623Z,16.27
2022-10-17T23:34:14.485Z,10.30
2022-10-17T23:41:36.855Z,10.57
2022-10-17T23:45:18.803Z,9.00
2022-10-17T23:49:00.710Z,10.20
2022-10-17T23:52:42.459Z,8.90
2022-10-17T23:56:24.272Z,11.37
